Wheat Ridge, CO

2:00 AM MDT on September 17, 2014 (GMT -0600)
Erie Municipal Airport | Change Station
CLOSE
Current Station
Airport
Location: Erie,
Elevation: 5128 ft
Nearby Weather Stations

Elev 5128 ft 40.01 °N, 105.05 °W | Updated 5 minutes ago

Clear
Clear
50 °F
Feels Like 50 °F
N
0
Wind Variable Wind from North

Today
High -- | Low -- °F
--% Chance of Precip.
Yesterday
High -- | Low -- °F
Precip. -- in
6:43 AM 7:05 PM
Last Quarter, 38% visible
Pressure 30.08 in
Visibility 10.0 miles
Clouds Clear
Dew Point 45 °F
Humidity 82%
Rainfall 0.00 in
Snow Depth Not available.
UV 0 out of 12
Pollen 8.10 out of 12
Ozone Good
PM2.5 Good
Flu Activity Not available.
METAR KEIK 170755Z AUTO 00000KT 10SM CLR 10/07 A3008 RMK AO2 T01020072

More Conditions Fewer Conditions

Pressure 30.08 in
Visibility 10.0 miles
Clouds Clear
Dew Point 45 °F
Humidity 82%
Rainfall 0.00 in
Snow Depth Not available.
UV 0 out of 12
Pollen 8.10 out of 12
Ozone Good
PM2.5 Good
Flu Activity Not available.
METAR KEIK 170755Z AUTO 00000KT 10SM CLR 10/07 A3008 RMK AO2 T01020072

More Conditions Fewer Conditions

10-Day Weather Forecast

Almanac

Astronomy

Sep. 17, 2014 Rise Set
Actual Time 6:43 AM MDT 7:05 PM MDT
Civil Twilight 6:16 AM MDT 7:32 PM MDT
Nautical Twilight 5:44 AM MDT 8:04 PM MDT
Astronomical Twilight 5:12 AM MDT 8:36 PM MDT
Moon 12:46 AM MDT 3:16 PM MDT
Length of Visible Light 13h 16m
Length of Day
12h 22m
Tomorrow will be 2m 35s shorter.
Last Quarter, 38% of the Moon is Illuminated
Today
Last Quarter
Sep 24
New
Oct 1
First Quarter
Oct 8
Full
Oct 15
Last Quarter

Today's Extremes

State Highs State Lows

Community

WunderPhotos

Upload Photos

1,753,976 photos uploaded!

Nearby

Air Quality

  Air Quality AQ Index Pollutant
Yesterday Good
OZONE
Yesterday Good
PM10
Current Good
PM2.5
Current Good
OZONE
Tuesday Moderate
OZONE
Tuesday Good
PM2.5
Wednesday Moderate
OZONE
Wednesday Good
PM2.5

Snow Depth

Station Depth Elevation
Arapaho Ridge 0 in 10960 ft
Zirkel 0 in 9340 ft
Rawah 19 in 9020 ft
Lone Cone 7 in 9600 ft
Buckskin Joe 0 in 11150 ft

Earthquake Activity

City Distance Mag. Time & Date
No recent earthquake activity has been reported nearby.
Minimum magnitude displayed is 2.5.

Coastal Water Temperatures

Place Temperature
No Stations Reporting

Nearby Weather Stations